Time;durP1;ratioP1;P1;durP2;ratioP2;P2;SDS_P1;SDS_P2;PMS_P1;PMS_P2;Temp;Humidity;BMP_temperature;BMP_pressure;BME280_temperature;BME280_humidity;BME280_pressure;Samples;Min_cycle;Max_cycle;Signal;HPM_P1;HPM_P2
2022/10/24 05:23:28;;;;;;;58.28;27.25;;;;;;;12.43;100.00;100625.84;5625441;26;231826;-88
2022/10/24 05:26:33;;;;;;;53.60;27.67;;;;;;;12.43;100.00;100625.84;5575862;32;34152;-87
2022/10/24 05:29:35;;;;;;;51.47;27.02;;;;;;;11.95;100.00;100644.25;5572701;32;34048;-87
2022/10/24 05:32:39;;;;;;;51.25;27.30;;;;;;;11.95;100.00;100644.25;5572674;32;32577;-87
2022/10/24 05:35:41;;;;;;;49.47;27.35;;;;;;;11.95;100.00;100647.78;5572265;32;34731;-87
2022/10/24 05:38:44;;;;;;;49.25;26.00;;;;;;;12.02;100.00;100644.81;5571715;32;34750;-87
2022/10/24 05:41:48;;;;;;;45.67;24.92;;;;;;;12.02;100.00;100650.13;5621816;26;33767;-87
2022/10/24 05:44:58;;;;;;;50.38;26.08;;;;;;;11.99;100.00;100648.47;5577683;32;34087;-87
2022/10/24 05:48:01;;;;;;;46.58;25.98;;;;;;;12.14;100.00;100646.87;5573706;32;33505;-87
2022/10/24 05:51:05;;;;;;;49.65;26.35;;;;;;;12.12;100.00;100662.88;5571902;32;33797;-87
2022/10/24 05:54:10;;;;;;;45.08;25.67;;;;;;;12.10;100.00;100663.91;5572537;32;34036;-87
2022/10/24 05:57:13;;;;;;;49.10;25.58;;;;;;;12.16;100.00;100668.91;5572511;32;33964;-87
2022/10/24 06:00:16;;;;;;;43.03;25.40;;;;;;;12.25;100.00;100662.25;5559777;32;33951;-86
2022/10/24 06:03:18;;;;;;;46.67;26.08;;;;;;;12.22;100.00;100655.28;5549244;32;32185;-86
2022/10/24 06:06:22;;;;;;;48.03;25.25;;;;;;;12.17;100.00;100677.75;5562170;32;33994;-86
2022/10/24 06:09:25;;;;;;;42.90;25.58;;;;;;;12.18;100.00;100688.31;5568061;32;33354;-86
2022/10/24 06:12:28;;;;;;;42.95;25.23;;;;;;;12.22;100.00;100687.22;5576439;32;34290;-86
2022/10/24 06:15:31;;;;;;;49.38;25.88;;;;;;;12.20;100.00;100690.87;5575559;32;34046;-86
2022/10/24 06:18:34;;;;;;;50.15;25.70;;;;;;;12.21;100.00;100688.16;5575360;32;34743;-86
2022/10/24 06:21:37;;;;;;;50.35;26.35;;;;;;;12.27;100.00;100702.91;5567606;32;34264;-85
2022/10/24 06:24:40;;;;;;;47.00;25.30;;;;;;;12.38;100.00;100689.09;5566506;32;34258;-86
2022/10/24 06:27:42;;;;;;;44.85;25.12;;;;;;;12.25;100.00;100700.38;5566583;32;33971;-86
2022/10/24 06:30:47;;;;;;;49.70;26.98;;;;;;;12.21;100.00;100693.47;5568690;32;34207;-86
2022/10/24 06:33:50;;;;;;;53.92;26.20;;;;;;;12.17;100.00;100685.75;5557391;32;33795;-87
2022/10/24 06:36:54;;;;;;;50.50;26.08;;;;;;;12.15;100.00;100691.13;5568233;26;33713;-86
2022/10/24 06:39:57;;;;;;;53.28;26.30;;;;;;;12.18;100.00;100690.12;5556032;32;34003;-85
2022/10/24 06:42:59;;;;;;;51.85;26.20;;;;;;;12.21;100.00;100687.28;5557128;32;34853;-86
2022/10/24 06:46:10;;;;;;;53.50;26.85;;;;;;;12.27;100.00;100687.84;5560478;32;34171;-86
2022/10/24 06:49:13;;;;;;;46.03;24.85;;;;;;;12.32;100.00;100682.25;5557878;32;33975;-86
2022/10/24 06:52:18;;;;;;;49.50;25.75;;;;;;;12.29;100.00;100674.47;5562440;32;33835;-86
2022/10/24 06:55:21;;;;;;;47.83;26.25;;;;;;;12.23;100.00;100674.78;5556646;32;35090;-89
2022/10/24 06:58:24;;;;;;;58.63;27.15;;;;;;;12.29;100.00;100666.47;5550952;32;33931;-90
2022/10/24 07:01:27;;;;;;;56.88;25.98;;;;;;;12.32;100.00;100653.00;5549621;32;34337;-91
2022/10/24 07:04:30;;;;;;;50.58;25.30;;;;;;;12.26;100.00;100648.88;5552806;32;33754;-87
2022/10/24 07:07:32;;;;;;;51.03;24.40;;;;;;;12.31;100.00;100643.31;5553710;32;34239;-86
2022/10/24 07:10:35;;;;;;;58.85;24.67;;;;;;;12.34;100.00;100659.12;5551137;32;34747;-86
2022/10/24 07:13:38;;;;;;;50.42;24.05;;;;;;;12.33;100.00;100664.53;5553847;32;33598;-86
2022/10/24 07:16:41;;;;;;;53.03;24.67;;;;;;;12.30;100.00;100670.84;5552111;32;33849;-86
2022/10/24 07:19:43;;;;;;;49.67;25.33;;;;;;;12.26;100.00;100671.94;5554314;32;34275;-86
2022/10/24 07:22:46;;;;;;;51.80;24.98;;;;;;;12.25;100.00;100687.06;5557821;32;32913;-86
2022/10/24 07:25:51;;;;;;;52.50;24.40;;;;;;;12.25;100.00;100705.69;5561955;32;34362;-88
2022/10/24 07:28:57;;;;;;;55.78;25.80;;;;;;;12.27;100.00;100708.25;5559011;32;33616;-87
2022/10/24 07:32:01;;;;;;;49.95;24.40;;;;;;;12.23;100.00;100723.50;5553604;32;33707;-87
2022/10/24 07:35:05;;;;;;;49.50;25.05;;;;;;;12.21;100.00;100725.37;5551291;32;32512;-87
2022/10/24 07:38:08;;;;;;;59.10;27.52;;;;;;;12.21;100.00;100729.84;5553991;32;33963;-88
2022/10/24 07:41:11;;;;;;;62.08;26.48;;;;;;;12.09;100.00;100718.91;5551586;32;33546;-88
2022/10/24 07:44:13;;;;;;;55.42;25.85;;;;;;;12.05;100.00;100714.66;5551579;32;33860;-88
2022/10/24 07:47:16;;;;;;;57.97;26.67;;;;;;;12.11;100.00;100690.44;5552383;32;33128;-87
2022/10/24 07:50:18;;;;;;;46.40;23.83;;;;;;;12.20;100.00;100682.91;5552182;32;34051;-87
2022/10/24 07:53:21;;;;;;;59.10;26.08;;;;;;;12.25;100.00;100689.72;5551964;32;33922;-87
2022/10/24 07:56:23;;;;;;;53.78;25.80;;;;;;;12.24;100.00;100695.13;5553280;32;33871;-87
2022/10/24 07:59:28;;;;;;;55.60;25.90;;;;;;;12.26;100.00;100696.75;5554303;32;32887;-87
2022/10/24 08:02:43;;;;;;;52.88;25.58;;;;;;;12.30;100.00;100691.25;5552695;32;33525;-87
2022/10/24 08:05:46;;;;;;;57.55;25.98;;;;;;;12.28;100.00;100699.34;5553111;32;33798;-86
2022/10/24 08:08:49;;;;;;;52.20;25.35;;;;;;;12.25;100.00;100703.03;5552169;32;33622;-86
2022/10/24 08:11:52;;;;;;;53.22;25.50;;;;;;;12.29;100.00;100698.41;5549815;32;34062;-88
2022/10/24 08:14:55;;;;;;;50.88;25.67;;;;;;;12.16;100.00;100698.16;5552345;32;33977;-87
2022/10/24 08:17:58;;;;;;;58.00;26.52;;;;;;;12.24;100.00;100688.00;5549194;32;33949;-89
2022/10/24 08:21:04;;;;;;;54.80;25.05;;;;;;;12.27;100.00;100701.13;5549262;32;33656;-88
2022/10/24 08:24:07;;;;;;;45.05;25.30;;;;;;;12.30;100.00;100692.13;5552816;32;34294;-87
2022/10/24 08:27:09;;;;;;;48.30;24.30;;;;;;;12.39;100.00;100685.47;5553117;32;32771;-85
2022/10/24 08:30:13;;;;;;;43.33;22.02;;;;;;;12.36;100.00;100677.63;5550879;32;32386;-87
2022/10/24 08:33:16;;;;;;;45.58;21.65;;;;;;;12.39;100.00;100690.81;5554075;32;34218;-83
2022/10/24 08:36:29;;;;;;;41.40;21.23;;;;;;;12.40;100.00;100690.72;5552272;32;34574;-86
2022/10/24 08:39:31;;;;;;;38.88;21.20;;;;;;;12.46;100.00;100680.69;5562940;32;32763;-86
2022/10/24 08:42:34;;;;;;;39.60;21.20;;;;;;;12.56;100.00;100681.06;5554019;32;35194;-87
2022/10/24 08:49:48;;;;;;;40.63;21.50;;;;;;;12.64;100.00;100662.88;5530669;32;20111;-87
2022/10/24 08:53:08;;;;;;;41.70;21.83;;;;;;;12.64;100.00;100655.78;5530381;32;34013;-85
2022/10/24 08:56:10;;;;;;;41.65;22.00;;;;;;;12.80;100.00;100660.25;5531391;32;33999;-86
2022/10/24 08:59:13;;;;;;;40.17;21.75;;;;;;;13.01;100.00;100644.03;5539470;32;34135;-87
2022/10/24 09:02:27;;;;;;;45.85;22.55;;;;;;;13.05;100.00;100637.59;5516927;32;33586;-86
2022/10/24 09:05:36;;;;;;;38.90;20.48;;;;;;;13.23;100.00;100632.16;5528014;32;33929;-87
2022/10/24 09:09:03;;;;;;;39.60;20.48;;;;;;;13.38;100.00;100638.44;5508636;32;32504;-86
2022/10/24 09:12:12;;;;;;;34.97;20.08;;;;;;;13.55;100.00;100643.69;5526641;32;34712;-86
2022/10/24 09:15:23;;;;;;;36.88;19.83;;;;;;;13.56;100.00;100656.06;5529611;32;34496;-86
2022/10/24 09:18:39;;;;;;;40.92;20.77;;;;;;;13.39;100.00;100654.34;5531682;32;34694;-86
2022/10/24 09:21:43;;;;;;;43.10;20.83;;;;;;;13.26;100.00;100663.94;5525078;32;34469;-86
2022/10/24 09:24:52;;;;;;;35.20;19.62;;;;;;;13.33;100.00;100658.19;5518839;32;34265;-89
2022/10/24 09:28:02;;;;;;;37.38;19.85;;;;;;;13.34;100.00;100665.22;5510764;32;33836;-90
2022/10/24 09:31:20;;;;;;;39.78;20.27;;;;;;;13.32;100.00;100664.47;5518537;32;34277;-86
2022/10/24 09:34:23;;;;;;;42.88;20.80;;;;;;;13.39;100.00;100667.66;5532906;32;34107;-86
2022/10/24 09:37:51;;;;;;;40.70;21.27;;;;;;;13.32;100.00;100664.47;5518190;32;32715;-85
2022/10/24 09:40:55;;;;;;;43.22;21.85;;;;;;;13.21;100.00;100675.75;5507438;32;32852;-86
2022/10/24 09:44:00;;;;;;;41.28;20.88;;;;;;;13.27;100.00;100671.88;5522313;32;34356;-86
2022/10/24 09:47:05;;;;;;;41.33;21.45;;;;;;;13.19;100.00;100682.94;5532229;32;33884;-86
2022/10/24 09:50:21;;;;;;;40.97;21.75;;;;;;;13.24;100.00;100696.03;5530123;32;33864;-86
2022/10/24 09:53:31;;;;;;;39.53;21.75;;;;;;;13.18;100.00;100691.03;5528147;32;33717;-85
2022/10/24 09:56:37;;;;;;;36.80;20.42;;;;;;;13.14;100.00;100693.03;5536960;32;34157;-86
2022/10/24 09:59:43;;;;;;;43.28;21.80;;;;;;;13.20;100.00;100697.13;5528309;32;34889;-86
2022/10/24 10:03:03;;;;;;;41.85;20.08;;;;;;;13.14;100.00;100685.03;5527490;32;33320;-87
2022/10/24 10:06:18;;;;;;;37.90;20.15;;;;;;;13.32;100.00;100685.78;5513323;32;34430;-87
2022/10/24 10:09:30;;;;;;;46.70;22.10;;;;;;;13.50;100.00;100688.37;5510251;32;34767;-86
2022/10/24 10:12:36;;;;;;;43.47;21.10;;;;;;;13.23;100.00;100677.47;5497814;32;32234;-86
2022/10/24 10:15:46;;;;;;;41.53;20.48;;;;;;;13.23;100.00;100678.28;5523405;32;34112;-91
2022/10/24 10:18:49;;;;;;;49.33;21.73;;;;;;;13.16;100.00;100679.59;5530278;32;33543;-87
2022/10/24 10:22:03;;;;;;;41.83;21.12;;;;;;;13.24;100.00;100676.50;5514268;32;33724;-87
2022/10/24 10:25:29;;;;;;;48.03;22.37;;;;;;;13.39;100.00;100666.78;5528152;32;34864;-87
2022/10/24 10:28:42;;;;;;;45.38;22.13;;;;;;;13.38;100.00;100654.41;5530970;32;33931;-87
2022/10/24 10:31:48;;;;;;;48.75;22.90;;;;;;;13.41;100.00;100652.44;5517076;32;33625;-87
2022/10/24 10:35:31;;;;;;;46.00;22.40;;;;;;;13.38;100.00;100651.75;5530366;32;33713;-87
2022/10/24 10:38:48;;;;;;;51.95;22.02;;;;;;;13.46;100.00;100666.38;5530473;32;33690;-87
2022/10/24 10:42:11;;;;;;;48.55;22.80;;;;;;;13.42;100.00;100658.63;5517706;32;32652;-87
2022/10/24 10:45:35;;;;;;;47.70;22.45;;;;;;;13.57;100.00;100647.09;5532714;32;33798;-87
2022/10/24 10:49:19;;;;;;;53.03;22.48;;;;;;;13.67;100.00;100643.91;5537480;32;34026;-91
2022/10/24 10:52:39;;;;;;;49.22;23.38;;;;;;;13.71;100.00;100648.97;5464124;32;34242;-87
2022/10/24 10:55:53;;;;;;;53.28;24.87;;;;;;;13.69;100.00;100634.84;5533659;32;34114;-87
2022/10/24 10:59:38;;;;;;;52.80;24.70;;;;;;;13.80;100.00;100647.56;5530355;32;34231;-86
2022/10/24 11:03:22;;;;;;;61.08;26.00;;;;;;;13.81;100.00;100635.09;5531120;32;33822;-86
2022/10/24 11:06:45;;;;;;;50.78;26.33;;;;;;;13.69;100.00;100632.19;5535994;32;35268;-90
2022/10/24 11:09:56;;;;;;;59.97;27.37;;;;;;;13.83;100.00;100623.37;5530739;32;33833;-87
2022/10/24 11:13:03;;;;;;;55.97;27.83;;;;;;;13.85;100.00;100621.50;5531206;32;33519;-88
2022/10/24 11:16:11;;;;;;;50.60;27.05;;;;;;;13.99;100.00;100625.97;5531932;32;34443;-86
2022/10/24 11:19:31;;;;;;;57.83;28.85;;;;;;;14.07;100.00;100619.34;5512137;32;32395;-86
2022/10/24 11:22:41;;;;;;;61.50;29.85;;;;;;;14.24;100.00;100620.97;5500657;32;33093;-87
2022/10/24 11:25:57;;;;;;;59.78;29.10;;;;;;;13.87;100.00;100627.59;5523757;32;33534;-86
2022/10/24 11:29:09;;;;;;;61.83;29.60;;;;;;;13.65;100.00;100630.69;5522242;32;34576;-87
2022/10/24 11:32:36;;;;;;;65.70;30.02;;;;;;;13.72;100.00;100621.34;5520968;32;34973;-87
2022/10/24 11:35:51;;;;;;;57.65;28.55;;;;;;;13.61;100.00;100624.66;5526507;32;34497;-88
2022/10/24 11:39:01;;;;;;;65.15;30.27;;;;;;;13.96;100.00;100618.19;5517592;32;34113;-88
2022/10/24 11:42:14;;;;;;;61.47;29.83;;;;;;;13.94;100.00;100604.06;5500805;32;32546;-88
2022/10/24 11:45:19;;;;;;;62.20;28.85;;;;;;;14.24;100.00;100599.63;5496991;32;32341;-93
2022/10/24 11:48:39;;;;;;;62.25;29.35;;;;;;;14.54;100.00;100598.69;5508301;32;32631;-93
2022/10/24 11:51:49;;;;;;;66.47;28.87;;;;;;;14.75;100.00;100609.84;5513186;32;34331;-90
2022/10/24 11:55:03;;;;;;;64.78;30.12;;;;;;;14.85;100.00;100617.25;5516458;32;33776;-89
2022/10/24 11:58:11;;;;;;;60.80;29.45;;;;;;;14.69;100.00;100602.19;5515339;32;33336;-89
2022/10/24 12:01:56;;;;;;;60.90;29.70;;;;;;;14.79;100.00;100602.50;5513545;32;33562;-89
2022/10/24 12:05:09;;;;;;;61.58;29.02;;;;;;;14.71;100.00;100592.25;5512564;32;34699;-89
2022/10/24 12:08:15;;;;;;;56.78;29.83;;;;;;;14.88;100.00;100596.53;5502930;32;32998;-88
2022/10/24 12:11:51;;;;;;;63.70;30.00;;;;;;;14.29;100.00;100603.72;5528537;32;33568;-86
2022/10/24 12:15:36;;;;;;;51.60;27.40;;;;;;;14.55;100.00;100595.06;5508000;32;33614;-87
2022/10/24 12:18:49;;;;;;;62.95;29.40;;;;;;;14.77;100.00;100591.91;5503748;32;32671;-87
2022/10/24 12:21:55;;;;;;;56.53;27.55;;;;;;;14.75;100.00;100590.28;5526843;32;33934;-87
2022/10/24 12:25:05;;;;;;;54.20;27.70;;;;;;;14.96;100.00;100596.06;5527031;32;34553;-87
2022/10/24 12:28:20;;;;;;;52.13;27.98;;;;;;;14.99;100.00;100587.00;5529446;32;33891;-88
2022/10/24 12:31:35;;;;;;;55.85;27.17;;;;;;;15.08;100.00;100576.56;5506506;32;32828;-88
2022/10/24 12:34:41;;;;;;;52.60;27.35;;;;;;;15.20;100.00;100577.56;5512554;32;33943;-88
2022/10/24 12:37:51;;;;;;;56.00;27.58;;;;;;;15.15;100.00;100581.50;5509796;32;33823;-88
2022/10/24 12:41:04;;;;;;;53.38;27.27;;;;;;;15.12;100.00;100582.56;5525153;32;33775;-88
2022/10/24 12:44:31;;;;;;;63.58;28.45;;;;;;;15.04;100.00;100582.22;5512879;32;32370;-88
2022/10/24 12:48:11;;;;;;;60.38;28.83;;;;;;;14.77;100.00;100567.00;5498667;32;32310;-88
2022/10/24 12:51:35;;;;;;;59.40;27.70;;;;;;;14.62;100.00;100568.81;5526932;32;34443;-88
2022/10/24 12:54:39;;;;;;;56.72;27.00;;;;;;;14.74;100.00;100578.72;5516268;32;32808;-88
2022/10/24 12:57:44;;;;;;;62.03;30.27;;;;;;;14.91;100.00;100569.66;5512325;32;32748;-88
2022/10/24 13:00:59;;;;;;;60.38;28.48;;;;;;;14.76;100.00;100557.28;5507798;32;32804;-88
2022/10/24 13:04:23;;;;;;;48.33;26.62;;;;;;;14.75;100.00;100551.09;5520572;32;32479;-88
2022/10/24 13:07:44;;;;;;;49.70;27.45;;;;;;;14.88;100.00;100551.16;5519669;32;34247;-88
2022/10/24 13:11:19;;;;;;;51.58;26.15;;;;;;;14.97;100.00;100546.19;5522481;32;34501;-88
2022/10/24 13:14:41;;;;;;;50.67;25.30;;;;;;;14.99;100.00;100536.25;5521619;32;33917;-88
2022/10/24 13:17:58;;;;;;;48.40;25.92;;;;;;;15.01;100.00;100540.53;5521067;32;34253;-88
2022/10/24 13:21:14;;;;;;;46.85;25.48;;;;;;;15.02;100.00;100552.06;5529837;32;34946;-91
2022/10/24 13:24:18;;;;;;;53.22;26.98;;;;;;;15.11;100.00;100540.78;5517952;32;33095;-88
2022/10/24 13:27:25;;;;;;;43.42;24.75;;;;;;;15.06;100.00;100541.09;5495471;32;32120;-88
2022/10/24 13:30:28;;;;;;;48.78;25.98;;;;;;;14.95;100.00;100533.75;5509727;32;34564;-88
2022/10/24 13:33:35;;;;;;;49.67;25.12;;;;;;;15.04;100.00;100529.63;5509381;32;33851;-88
2022/10/24 13:36:38;;;;;;;45.58;25.83;;;;;;;15.07;100.00;100532.09;5510630;32;34125;-89
